Station Historical Data
Daily Summary for November 14, 2017 Units:  English    Metric   Both
« Previous Day
Next Day »
Daily Weekly Monthly Yearly Custom
  High: Low: Average:
Temperature: 42.9 °F 31.4 °F 39.3 °F
Dew Point: 36.5 °F 28.5 °F 34 °F
Humidity: 89% 67% 82%
Wind Speed: 3.0mph 0.0mph 0.1mph
Wind Gust: 5.0mph - -
Wind- - WSW
Pressure: 30.40 in 30.29 in -
Precipitation: 0.00 in    
Historical Graphs
 
 
Tabular Data for November 14, 2017
Time Temperature Dew Point Pressure Wind Wind Speed Wind Gust Humidity Rainfall Rate (Hourly)
00:04 38.4 °F 34.9 °F 30.38 in Calm     87% 0.00 in
00:09 38.4 °F 34.9 °F 30.38 in Calm     87% 0.00 in
00:14 38.4 °F 34.6 °F 30.38 in Calm     86% 0.00 in
00:19 38.4 °F 34.6 °F 30.38 in Calm     86% 0.00 in
00:24 38.4 °F 34.6 °F 30.38 in Calm     86% 0.00 in
00:29 38.3 °F 34.5 °F 30.38 in Calm     86% 0.00 in
00:34 38.3 °F 34.5 °F 30.38 in Calm     86% 0.00 in
00:39 38.3 °F 34.5 °F 30.38 in Calm     86% 0.00 in
00:44 38.3 °F 34.5 °F 30.38 in Calm     86% 0.00 in
00:49 38.3 °F 34.5 °F 30.38 in Calm     86% 0.00 in
00:54 38.3 °F 34.5 °F 30.38 in Calm     86% 0.00 in
00:59 38.2 °F 34.4 °F 30.38 in Calm     86% 0.00 in
01:04 38.3 °F 34.5 °F 30.38 in Calm     86% 0.00 in
01:09 38.2 °F 34.4 °F 30.38 in Calm     86% 0.00 in
01:14 38.2 °F 34.4 °F 30.38 in Calm     86% 0.00 in
01:19 38.1 °F 34.6 °F 30.38 in Calm     87% 0.00 in
01:24 38.1 °F 34.6 °F 30.37 in Calm     87% 0.00 in
01:29 38.0 °F 34.5 °F 30.37 in Calm     87% 0.00 in
01:34 38.1 °F 34.6 °F 30.37 in Calm   3.0 mph 87% 0.00 in
01:39 38.2 °F 34.7 °F 30.37 in Calm   2.0 mph 87% 0.00 in
01:44 38.2 °F 34.7 °F 30.38 in Calm   2.0 mph 87% 0.00 in
01:49 38.2 °F 34.7 °F 30.38 in Calm     87% 0.00 in
01:54 38.1 °F 34.6 °F 30.38 in Calm     87% 0.00 in
01:59 38.0 °F 34.5 °F 30.38 in Calm     87% 0.00 in
02:04 38.0 °F 34.5 °F 30.37 in Calm     87% 0.00 in
02:09 38.0 °F 34.5 °F 30.37 in Calm     87% 0.00 in
02:14 38.0 °F 34.5 °F 30.37 in Calm     87% 0.00 in
02:19 38.1 °F 34.9 °F 30.37 in WNW 2.0 mph 2.0 mph 88% 0.00 in
02:24 38.1 °F 34.9 °F 30.37 in Calm   2.0 mph 88% 0.00 in
02:29 38.1 °F 34.9 °F 30.38 in Calm     88% 0.00 in
02:34 38.1 °F 34.9 °F 30.38 in SW 1.0 mph 4.0 mph 88% 0.00 in
02:39 38.1 °F 34.9 °F 30.38 in SSW 2.0 mph 5.0 mph 88% 0.00 in
02:44 38.1 °F 34.9 °F 30.38 in Calm   4.0 mph 88% 0.00 in
02:49 38.2 °F 35.0 °F 30.37 in NNW 2.0 mph 3.0 mph 88% 0.00 in
02:54 38.3 °F 35.1 °F 30.38 in WNW 1.0 mph 4.0 mph 88% 0.00 in
02:59 38.4 °F 34.9 °F 30.38 in NW 1.0 mph 4.0 mph 87% 0.00 in
03:04 38.4 °F 34.9 °F 30.38 in Calm   2.0 mph 87% 0.00 in
03:09 38.5 °F 35.0 °F 30.38 in Calm   2.0 mph 87% 0.00 in
03:14 38.4 °F 34.9 °F 30.38 in Calm     87% 0.00 in
03:19 38.3 °F 34.8 °F 30.37 in Calm     87% 0.00 in
03:24 38.3 °F 34.8 °F 30.37 in Calm   1.0 mph 87% 0.00 in
03:29 38.3 °F 34.8 °F 30.37 in Calm   1.0 mph 87% 0.00 in
03:34 38.3 °F 34.8 °F 30.37 in Calm     87% 0.00 in
03:39 38.2 °F 34.7 °F 30.38 in Calm     87% 0.00 in
03:44 38.3 °F 35.1 °F 30.38 in Calm     88% 0.00 in
03:49 38.3 °F 35.1 °F 30.38 in Calm     88% 0.00 in
03:54 38.3 °F 35.1 °F 30.38 in Calm     88% 0.00 in
03:59 38.3 °F 35.1 °F 30.38 in Calm     88% 0.00 in
04:04 38.3 °F 35.1 °F 30.38 in Calm     88% 0.00 in
04:09 38.3 °F 35.1 °F 30.38 in Calm     88% 0.00 in
04:14 38.3 °F 35.1 °F 30.38 in Calm     88% 0.00 in
04:19 38.3 °F 34.8 °F 30.38 in Calm     87% 0.00 in
04:24 38.2 °F 35.0 °F 30.38 in Calm     88% 0.00 in
04:29 38.2 °F 35.0 °F 30.38 in Calm     88% 0.00 in
04:34 38.1 °F 34.9 °F 30.38 in Calm     88% 0.00 in
04:44 38.0 °F 34.5 °F 30.38 in Calm     87% 0.00 in
04:49 38.0 °F 34.8 °F 30.38 in Calm     88% 0.00 in
04:54 38.0 °F 34.8 °F 30.38 in Calm     88% 0.00 in
04:59 38.0 °F 34.8 °F 30.38 in Calm     88% 0.00 in
05:04 38.0 °F 34.8 °F 30.38 in Calm     88% 0.00 in
05:09 38.1 °F 34.9 °F 30.38 in Calm     88% 0.00 in
05:14 38.2 °F 35.0 °F 30.38 in Calm     88% 0.00 in
05:19 38.2 °F 35.0 °F 30.39 in Calm     88% 0.00 in
05:24 38.1 °F 34.9 °F 30.38 in Calm     88% 0.00 in
05:29 38.1 °F 34.9 °F 30.38 in Calm     88% 0.00 in
05:34 38.1 °F 34.9 °F 30.38 in Calm     88% 0.00 in
05:39 38.1 °F 34.9 °F 30.38 in Calm     88% 0.00 in
05:44 38.0 °F 34.8 °F 30.38 in Calm     88% 0.00 in
05:49 38.1 °F 35.1 °F 30.38 in Calm     89% 0.00 in
05:54 38.0 °F 35.0 °F 30.38 in Calm     89% 0.00 in
05:59 38.1 °F 35.1 °F 30.38 in Calm     89% 0.00 in
06:04 38.2 °F 35.2 °F 30.38 in Calm     89% 0.00 in
06:09 38.2 °F 35.2 °F 30.38 in Calm     89% 0.00 in
06:14 38.2 °F 35.2 °F 30.38 in Calm     89% 0.00 in
06:19 38.2 °F 35.2 °F 30.38 in Calm     89% 0.00 in
06:24 38.2 °F 35.2 °F 30.38 in Calm     89% 0.00 in
06:29 38.2 °F 35.0 °F 30.38 in Calm     88% 0.00 in
06:34 38.2 °F 35.0 °F 30.38 in Calm     88% 0.00 in
06:39 38.1 °F 34.9 °F 30.38 in Calm     88% 0.00 in
06:44 38.0 °F 34.8 °F 30.38 in Calm     88% 0.00 in
06:49 38.0 °F 34.8 °F 30.38 in Calm     88% 0.00 in
06:54 38.0 °F 34.8 °F 30.38 in Calm     88% 0.00 in
06:59 38.0 °F 34.8 °F 30.38 in Calm     88% 0.00 in
07:04 38.0 °F 35.0 °F 30.38 in Calm     89% 0.00 in
07:09 37.9 °F 34.9 °F 30.38 in Calm     89% 0.00 in
07:14 38.0 °F 35.0 °F 30.38 in Calm     89% 0.00 in
07:19 38.0 °F 35.0 °F 30.38 in Calm     89% 0.00 in
07:24 38.1 °F 35.1 °F 30.39 in Calm     89% 0.00 in
07:29 38.1 °F 35.1 °F 30.39 in Calm     89% 0.00 in
07:34 38.2 °F 35.2 °F 30.39 in Calm     89% 0.00 in
07:39 38.2 °F 35.2 °F 30.39 in Calm     89% 0.00 in
07:44 38.3 °F 35.3 °F 30.39 in Calm     89% 0.00 in
07:49 38.3 °F 35.3 °F 30.39 in Calm     89% 0.00 in
07:54 38.4 °F 35.2 °F 30.39 in Calm     88% 0.00 in
07:59 38.5 °F 35.3 °F 30.39 in Calm     88% 0.00 in
08:04 38.6 °F 35.4 °F 30.39 in Calm     88% 0.00 in
08:09 38.7 °F 35.5 °F 30.40 in Calm     88% 0.00 in
08:14 38.8 °F 35.6 °F 30.40 in Calm     88% 0.00 in
08:19 38.9 °F 35.6 °F 30.40 in Calm     88% 0.00 in
08:24 39.0 °F 35.7 °F 30.40 in Calm     88% 0.00 in
08:29 39.1 °F 35.8 °F 30.40 in Calm     88% 0.00 in
08:34 39.3 °F 36.0 °F 30.40 in Calm     88% 0.00 in
08:39 39.3 °F 36.0 °F 30.40 in Calm     88% 0.00 in
08:44 39.3 °F 36.0 °F 30.40 in Calm     88% 0.00 in
08:49 39.5 °F 36.0 °F 30.40 in Calm     87% 0.00 in
08:54 39.5 °F 36.0 °F 30.40 in Calm     87% 0.00 in
08:59 39.6 °F 36.0 °F 30.40 in Calm     87% 0.00 in
09:04 39.7 °F 36.1 °F 30.40 in Calm     87% 0.00 in
09:09 39.7 °F 35.9 °F 30.40 in Calm     86% 0.00 in
09:14 39.8 °F 36.0 °F 30.40 in Calm     86% 0.00 in
09:19 40.0 °F 36.2 °F 30.40 in Calm   3.0 mph 86% 0.00 in
09:24 40.1 °F 36.2 °F 30.40 in Calm   3.0 mph 86% 0.00 in
09:29 40.1 °F 36.0 °F 30.40 in West 1.0 mph 3.0 mph 85% 0.00 in
09:34 40.3 °F 36.1 °F 30.40 in West 1.0 mph 3.0 mph 85% 0.00 in
09:39 40.3 °F 35.8 °F 30.40 in Calm   2.0 mph 84% 0.00 in
09:44 40.5 °F 36.0 °F 30.39 in Calm   2.0 mph 84% 0.00 in
09:54 40.6 °F 36.1 °F 30.39 in Calm   2.0 mph 84% 0.00 in
09:59 40.6 °F 36.1 °F 30.39 in Calm     84% 0.00 in
10:04 40.9 °F 36.4 °F 30.39 in Calm     84% 0.00 in
10:09 40.9 °F 36.1 °F 30.40 in Calm   2.0 mph 83% 0.00 in
10:14 40.8 °F 36.0 °F 30.40 in Calm     83% 0.00 in
10:19 40.9 °F 36.1 °F 30.40 in Calm     83% 0.00 in
10:24 40.9 °F 36.4 °F 30.40 in Calm     84% 0.00 in
10:29 40.9 °F 36.1 °F 30.40 in Calm   2.0 mph 83% 0.00 in
10:34 40.9 °F 36.1 °F 30.39 in Calm   3.0 mph 83% 0.00 in
10:39 40.9 °F 36.1 °F 30.39 in Calm   1.0 mph 83% 0.00 in
10:44 41.3 °F 36.5 °F 30.39 in Calm   1.0 mph 83% 0.00 in
10:49 41.4 °F 36.0 °F 30.39 in Calm   2.0 mph 81% 0.00 in
10:54 41.6 °F 36.2 °F 30.39 in Calm   2.0 mph 81% 0.00 in
10:59 41.7 °F 36.3 °F 30.39 in Calm     81% 0.00 in
11:04 41.9 °F 36.5 °F 30.38 in SW 2.0 mph 2.0 mph 81% 0.00 in
11:09 41.8 °F 36.1 °F 30.38 in Calm   3.0 mph 80% 0.00 in
11:14 41.7 °F 35.7 °F 30.38 in Calm     79% 0.00 in
11:19 42.0 °F 36.0 °F 30.38 in Calm     79% 0.00 in
11:24 41.8 °F 35.4 °F 30.38 in Calm   2.0 mph 78% 0.00 in
11:29 42.0 °F 35.6 °F 30.38 in Calm   2.0 mph 78% 0.00 in
11:34 42.2 °F 35.8 °F 30.37 in Calm   2.0 mph 78% 0.00 in
11:39 42.2 °F 35.5 °F 30.37 in Calm   2.0 mph 77% 0.00 in
11:44 42.4 °F 35.7 °F 30.37 in Calm   1.0 mph 77% 0.00 in
11:49 42.4 °F 35.7 °F 30.37 in Calm     77% 0.00 in
11:54 42.4 °F 35.0 °F 30.36 in Calm     75% 0.00 in
11:59 42.8 °F 35.8 °F 30.36 in Calm   3.0 mph 76% 0.00 in
12:04 42.8 °F 35.8 °F 30.36 in Calm   3.0 mph 76% 0.00 in
12:09 42.8 °F 36.1 °F 30.36 in SSW 1.0 mph 3.0 mph 77% 0.00 in
12:14 42.6 °F 35.9 °F 30.36 in Calm   2.0 mph 77% 0.00 in
12:19 42.4 °F 35.4 °F 30.36 in Calm   1.0 mph 76% 0.00 in
12:24 42.6 °F 35.9 °F 30.36 in WSW 1.0 mph 4.0 mph 77% 0.00 in
12:29 42.3 °F 35.3 °F 30.36 in Calm   1.0 mph 76% 0.00 in
12:34 42.5 °F 35.5 °F 30.36 in Calm   2.0 mph 76% 0.00 in
12:39 42.5 °F 35.5 °F 30.35 in Calm   4.0 mph 76% 0.00 in
12:44 42.6 °F 35.6 °F 30.35 in Calm     76% 0.00 in
12:49 42.4 °F 35.0 °F 30.35 in Calm     75% 0.00 in
12:54 42.3 °F 34.6 °F 30.35 in Calm   2.0 mph 74% 0.00 in
12:59 42.5 °F 34.8 °F 30.35 in SSW 1.0 mph 3.0 mph 74% 0.00 in
13:04 42.4 °F 35.0 °F 30.35 in SW 1.0 mph 5.0 mph 75% 0.00 in
13:09 42.3 °F 34.6 °F 30.35 in SW 1.0 mph 5.0 mph 74% 0.00 in
13:14 42.3 °F 34.9 °F 30.35 in SSW 1.0 mph 4.0 mph 75% 0.00 in
13:19 42.3 °F 34.9 °F 30.35 in Calm   4.0 mph 75% 0.00 in
13:24 42.2 °F 34.8 °F 30.35 in Calm     75% 0.00 in
13:29 42.2 °F 34.8 °F 30.35 in Calm   3.0 mph 75% 0.00 in
13:34 42.0 °F 34.3 °F 30.35 in Calm   3.0 mph 74% 0.00 in
13:39 42.1 °F 34.7 °F 30.35 in Calm   1.0 mph 75% 0.00 in
13:44 42.1 °F 34.7 °F 30.34 in Calm   4.0 mph 75% 0.00 in
13:49 42.2 °F 34.8 °F 30.34 in Calm   3.0 mph 75% 0.00 in
13:54 42.2 °F 34.8 °F 30.34 in SSW 1.0 mph 3.0 mph 75% 0.00 in
13:59 42.4 °F 34.7 °F 30.34 in South 1.0 mph 5.0 mph 74% 0.00 in
14:04 42.5 °F 34.8 °F 30.33 in SSW 1.0 mph 5.0 mph 74% 0.00 in
14:09 42.6 °F 34.5 °F 30.33 in SSW 1.0 mph 4.0 mph 73% 0.00 in
14:14 42.7 °F 34.6 °F 30.33 in SSW 1.0 mph 3.0 mph 73% 0.00 in
14:19 42.7 °F 34.3 °F 30.33 in Calm   3.0 mph 72% 0.00 in
14:24 42.7 °F 34.3 °F 30.33 in SSW 1.0 mph 3.0 mph 72% 0.00 in
14:29 42.7 °F 33.9 °F 30.33 in Calm   3.0 mph 71% 0.00 in
14:34 42.5 °F 33.4 °F 30.33 in Calm   1.0 mph 70% 0.00 in
14:39 42.7 °F 33.6 °F 30.33 in Calm   1.0 mph 70% 0.00 in
14:44 42.7 °F 33.6 °F 30.33 in Calm     70% 0.00 in
14:49 42.7 °F 33.6 °F 30.33 in Calm   3.0 mph 70% 0.00 in
14:54 42.8 °F 34.0 °F 30.33 in Calm   2.0 mph 71% 0.00 in
14:59 42.9 °F 33.8 °F 30.33 in Calm   2.0 mph 70% 0.00 in
15:04 42.9 °F 33.8 °F 30.33 in Calm   2.0 mph 70% 0.00 in
15:09 42.8 °F 33.3 °F 30.33 in Calm   2.0 mph 69% 0.00 in
15:14 42.6 °F 33.1 °F 30.34 in Calm   3.0 mph 69% 0.00 in
15:19 42.8 °F 33.7 °F 30.34 in WSW 2.0 mph 3.0 mph 70% 0.00 in
15:24 42.6 °F 33.1 °F 30.34 in WSW 1.0 mph 5.0 mph 69% 0.00 in
15:29 42.6 °F 33.1 °F 30.34 in WSW 2.0 mph 5.0 mph 69% 0.00 in
15:34 42.5 °F 33.0 °F 30.34 in WSW 2.0 mph 5.0 mph 69% 0.00 in
15:39 42.5 °F 33.0 °F 30.34 in WSW 1.0 mph 5.0 mph 69% 0.00 in
15:44 42.4 °F 32.6 °F 30.34 in Calm   3.0 mph 68% 0.00 in
15:49 42.4 °F 32.2 °F 30.34 in Calm   3.0 mph 67% 0.00 in
15:54 42.4 °F 32.6 °F 30.33 in WNW 1.0 mph 4.0 mph 68% 0.00 in
15:59 42.4 °F 32.2 °F 30.33 in West 1.0 mph 4.0 mph 67% 0.00 in
16:04 42.4 °F 32.2 °F 30.33 in West 1.0 mph 3.0 mph 67% 0.00 in
16:09 42.4 °F 32.6 °F 30.34 in West 1.0 mph 3.0 mph 68% 0.00 in
16:14 42.4 °F 32.2 °F 30.34 in Calm   3.0 mph 67% 0.00 in
16:19 42.3 °F 32.1 °F 30.34 in Calm     67% 0.00 in
16:24 42.3 °F 32.5 °F 30.34 in Calm     68% 0.00 in
16:29 42.2 °F 32.4 °F 30.34 in Calm     68% 0.00 in
16:34 42.1 °F 32.7 °F 30.34 in Calm     69% 0.00 in
16:39 42.0 °F 32.6 °F 30.34 in Calm     69% 0.00 in
16:44 41.9 °F 32.8 °F 30.34 in Calm     70% 0.00 in
16:49 41.8 °F 32.7 °F 30.34 in Calm     70% 0.00 in
16:54 41.7 °F 33.0 °F 30.34 in Calm     71% 0.00 in
16:59 41.6 °F 32.9 °F 30.34 in Calm     71% 0.00 in
17:04 41.5 °F 32.8 °F 30.33 in Calm     71% 0.00 in
17:09 41.5 °F 32.8 °F 30.33 in Calm     71% 0.00 in
17:14 41.5 °F 32.8 °F 30.33 in Calm     71% 0.00 in
17:19 41.4 °F 32.7 °F 30.33 in Calm     71% 0.00 in
17:24 41.4 °F 32.7 °F 30.33 in Calm     71% 0.00 in
17:29 41.3 °F 32.6 °F 30.33 in Calm     71% 0.00 in
17:34 41.3 °F 32.6 °F 30.33 in Calm     71% 0.00 in
17:39 41.2 °F 32.5 °F 30.33 in Calm     71% 0.00 in
17:44 41.2 °F 32.9 °F 30.33 in Calm     72% 0.00 in
17:49 41.2 °F 33.2 °F 30.33 in Calm     73% 0.00 in
17:54 41.1 °F 33.4 °F 30.33 in Calm     74% 0.00 in
17:59 41.0 °F 33.7 °F 30.33 in Calm     75% 0.00 in
18:04 40.9 °F 33.9 °F 30.33 in Calm     76% 0.00 in
18:09 40.9 °F 33.9 °F 30.33 in Calm     76% 0.00 in
18:14 40.7 °F 33.7 °F 30.33 in Calm     76% 0.00 in
18:19 40.7 °F 34.0 °F 30.33 in Calm     77% 0.00 in
18:24 40.6 °F 34.0 °F 30.33 in Calm     77% 0.00 in
18:29 40.6 °F 34.0 °F 30.32 in Calm   5.0 mph 77% 0.00 in
18:34 40.6 °F 34.0 °F 30.32 in Calm     77% 0.00 in
18:39 40.6 °F 34.0 °F 30.32 in Calm     77% 0.00 in
18:44 40.6 °F 33.6 °F 30.32 in SSW 1.0 mph 4.0 mph 76% 0.00 in
18:49 40.6 °F 33.6 °F 30.32 in SSW 1.0 mph 4.0 mph 76% 0.00 in
18:54 40.5 °F 33.5 °F 30.32 in Calm     76% 0.00 in
18:59 40.6 °F 33.6 °F 30.32 in Calm     76% 0.00 in
19:04 40.5 °F 33.5 °F 30.32 in Calm     76% 0.00 in
19:09 40.6 °F 33.6 °F 30.31 in Calm     76% 0.00 in
19:14 40.4 °F 33.4 °F 30.31 in Calm     76% 0.00 in
19:19 40.4 °F 33.4 °F 30.31 in Calm     76% 0.00 in
19:24 40.4 °F 33.4 °F 30.31 in Calm     76% 0.00 in
19:29 40.3 °F 33.3 °F 30.31 in Calm     76% 0.00 in
19:34 40.2 °F 33.2 °F 30.31 in Calm     76% 0.00 in
19:39 40.2 °F 33.2 °F 30.31 in Calm     76% 0.00 in
19:44 40.2 °F 33.2 °F 30.31 in Calm     76% 0.00 in
19:49 40.0 °F 33.4 °F 30.31 in Calm     77% 0.00 in
19:54 40.0 °F 33.4 °F 30.31 in Calm     77% 0.00 in
19:59 39.9 °F 33.6 °F 30.31 in Calm     78% 0.00 in
20:04 39.8 °F 33.5 °F 30.31 in Calm     78% 0.00 in
20:09 39.6 °F 33.3 °F 30.31 in Calm     78% 0.00 in
20:14 39.3 °F 33.0 °F 30.30 in Calm     78% 0.00 in
20:19 39.1 °F 32.8 °F 30.30 in Calm     78% 0.00 in
20:24 38.6 °F 32.6 °F 30.30 in SSE 3.0 mph 3.0 mph 79% 0.00 in
20:29 38.3 °F 32.4 °F 30.30 in Calm   4.0 mph 79% 0.00 in
20:34 38.1 °F 32.2 °F 30.30 in Calm     79% 0.00 in
20:39 37.8 °F 31.9 °F 30.30 in Calm   3.0 mph 79% 0.00 in
20:44 37.4 °F 31.8 °F 30.30 in Calm     80% 0.00 in
20:49 37.1 °F 31.8 °F 30.30 in Calm     81% 0.00 in
20:54 36.8 °F 31.5 °F 30.30 in Calm     81% 0.00 in
20:59 36.5 °F 31.5 °F 30.30 in Calm     82% 0.00 in
21:04 36.2 °F 31.2 °F 30.30 in Calm   2.0 mph 82% 0.00 in
21:09 35.9 °F 31.2 °F 30.30 in Calm   1.0 mph 83% 0.00 in
21:14 35.8 °F 31.1 °F 30.30 in Calm     83% 0.00 in
21:19 35.7 °F 31.3 °F 30.31 in Calm     84% 0.00 in
21:24 35.3 °F 30.9 °F 30.31 in Calm     84% 0.00 in
21:29 35.1 °F 30.8 °F 30.31 in Calm     84% 0.00 in
21:34 34.9 °F 30.8 °F 30.31 in Calm     85% 0.00 in
21:39 34.6 °F 30.6 °F 30.31 in Calm     85% 0.00 in
21:44 34.6 °F 30.6 °F 30.31 in Calm     85% 0.00 in
21:49 34.7 °F 30.9 °F 30.31 in Calm     86% 0.00 in
21:54 34.7 °F 30.9 °F 30.31 in Calm     86% 0.00 in
21:59 34.6 °F 30.8 °F 30.31 in Calm     86% 0.00 in
22:04 34.1 °F 30.4 °F 30.31 in Calm     86% 0.00 in
22:09 34.1 °F 30.4 °F 30.31 in Calm     86% 0.00 in
22:19 33.5 °F 29.8 °F 30.31 in Calm     86% 0.00 in
22:29 33.6 °F 30.1 °F 30.31 in Calm     87% 0.00 in
22:34 33.5 °F 30.0 °F 30.31 in Calm     87% 0.00 in
22:39 33.5 °F 30.0 °F 30.30 in Calm     87% 0.00 in
22:44 33.4 °F 29.9 °F 30.30 in Calm     87% 0.00 in
22:49 33.4 °F 29.9 °F 30.30 in Calm     87% 0.00 in
22:54 33.3 °F 29.8 °F 30.30 in Calm     87% 0.00 in
22:59 33.0 °F 29.6 °F 30.30 in Calm     87% 0.00 in
23:04 32.6 °F 29.2 °F 30.30 in Calm     87% 0.00 in
23:09 32.4 °F 29.2 °F 30.30 in Calm     88% 0.00 in
23:14 32.4 °F 29.2 °F 30.30 in Calm     88% 0.00 in
23:19 32.4 °F 29.2 °F 30.30 in Calm     88% 0.00 in
23:24 32.2 °F 29.0 °F 30.29 in Calm     88% 0.00 in
23:29 32.1 °F 28.9 °F 30.30 in Calm     88% 0.00 in
23:34 31.9 °F 28.8 °F 30.30 in Calm     88% 0.00 in
23:39 31.7 °F 28.6 °F 30.30 in Calm     88% 0.00 in
23:44 31.7 °F 28.8 °F 30.30 in Calm     89% 0.00 in
23:49 31.7 °F 28.8 °F 30.30 in Calm     89% 0.00 in
23:54 31.6 °F 28.7 °F 30.30 in Calm     89% 0.00 in
23:59 31.4 °F 28.5 °F 30.31 in Calm     89% 0.00 in
Buffalo, New York, USA
Compliments of Weather Underground - 2.5 mb